TimeCDT,TemperatureF,Dew PointF,Humidity,Sea Level PressureIn,VisibilityMPH,Wind Direction,Wind SpeedMPH,Gust SpeedMPH,PrecipitationIn,Events,Conditions,WindDirDegrees,DateUTC
12:53 AM,70.0,57.9,65,30.16,10.0,SE,10.4,-,N/A,,Scattered Clouds,130,2012-10-14 05:53:00
1:53 AM,70.0,55.9,61,30.15,10.0,SE,9.2,-,N/A,,Mostly Cloudy,130,2012-10-14 06:53:00
2:53 AM,68.0,57.9,70,30.14,10.0,SE,11.5,-,N/A,,Scattered Clouds,140,2012-10-14 07:53:00
3:53 AM,66.9,59.0,76,30.14,10.0,SE,11.5,17.3,N/A,,Scattered Clouds,140,2012-10-14 08:53:00
4:53 AM,66.0,60.1,81,30.14,10.0,SE,6.9,16.1,N/A,,Clear,140,2012-10-14 09:53:00
5:27 AM,66.2,60.8,83,30.16,10.0,SSE,9.2,-,N/A,,Mostly Cloudy,150,2012-10-14 10:27:00
5:53 AM,66.0,61.0,84,30.13,10.0,SSE,8.1,-,N/A,,Overcast,160,2012-10-14 10:53:00
6:53 AM,66.0,61.0,84,30.15,10.0,SSE,8.1,17.3,N/A,,Overcast,160,2012-10-14 11:53:00
7:53 AM,66.0,61.0,84,30.18,10.0,SSE,9.2,-,N/A,,Overcast,150,2012-10-14 12:53:00
8:53 AM,68.0,62.1,81,30.19,10.0,SSE,6.9,-,N/A,,Overcast,150,2012-10-14 13:53:00
9:49 AM,69.8,62.6,78,30.23,10.0,South,6.9,-,N/A,,Overcast,170,2012-10-14 14:49:00
9:53 AM,70.0,62.1,76,30.21,10.0,South,9.2,-,N/A,,Mostly Cloudy,180,2012-10-14 14:53:00
10:21 AM,71.6,62.6,73,30.23,10.0,South,8.1,-,N/A,,Overcast,190,2012-10-14 15:21:00
10:35 AM,71.6,62.6,73,30.23,10.0,SSW,8.1,-,N/A,,Overcast,200,2012-10-14 15:35:00
10:53 AM,73.0,63.0,71,30.21,10.0,South,8.1,-,N/A,,Overcast,190,2012-10-14 15:53:00
11:53 AM,75.9,63.0,64,30.16,10.0,South,11.5,-,N/A,,Partly Cloudy,180,2012-10-14 16:53:00
12:53 PM,75.9,63.0,64,30.12,10.0,South,15.0,19.6,N/A,,Partly Cloudy,170,2012-10-14 17:53:00
1:53 PM,78.1,63.0,60,30.08,10.0,South,15.0,-,N/A,,Scattered Clouds,190,2012-10-14 18:53:00
2:53 PM,80.6,64.4,58,30.07,10.0,SSW,13.8,-,N/A,,Scattered Clouds,210,2012-10-14 19:53:00
3:53 PM,78.1,64.0,62,30.02,10.0,South,9.2,-,N/A,,Mostly Cloudy,180,2012-10-14 20:53:00
4:53 PM,77.0,64.9,66,30.02,10.0,South,5.8,-,N/A,,Mostly Cloudy,190,2012-10-14 21:53:00
5:53 PM,75.0,64.9,71,30.00,10.0,South,4.6,-,N/A,,Clear,180,2012-10-14 22:53:00
6:53 PM,73.9,64.9,73,30.00,10.0,South,8.1,-,N/A,,Mostly Cloudy,180,2012-10-14 23:53:00
7:53 PM,73.9,64.9,73,30.01,10.0,South,8.1,-,N/A,,Overcast,190,2012-10-15 00:53:00
8:53 PM,73.0,64.9,76,30.00,10.0,South,10.4,-,N/A,,Partly Cloudy,180,2012-10-15 01:53:00
9:53 PM,73.0,64.9,76,29.99,10.0,South,11.5,-,N/A,,Partly Cloudy,180,2012-10-15 02:53:00
10:53 PM,73.0,64.9,76,29.98,10.0,South,10.4,-,N/A,,Mostly Cloudy,190,2012-10-15 03:53:00
11:19 PM,71.6,64.4,78,30.00,4.0,WNW,20.7,36.8,0.00,Rain-Thunderstorm,Light Thunderstorms and Rain,290,2012-10-15 04:19:00
11:23 PM,69.8,60.8,73,30.00,1.8,WSW,6.9,36.8,0.05,Rain-Thunderstorm,Heavy Thunderstorms and Rain,250,2012-10-15 04:23:00
11:33 PM,68.0,62.6,83,29.99,3.0,WSW,5.8,-,0.18,Rain-Thunderstorm,Thunderstorms and Rain,250,2012-10-15 04:33:00
11:49 PM,66.2,64.4,94,29.99,6.0,South,6.9,-,0.22,Rain-Thunderstorm,Light Thunderstorms and Rain,180,2012-10-15 04:49:00
11:53 PM,66.9,64.0,90,29.97,7.0,Calm,Calm,-,0.22,Rain-Thunderstorm,Light Thunderstorms and Rain,0,2012-10-15 04:53:00